Terminal Aerodrome Forecast
Issued by NWS

Home | Current Version | Previous Version | Text Only | Print | Product List | Glossary On
Versions: 1 2 3 4 5 6 7 8 9 10 11 12 13 14 15 16 17 18 19 20
000
FTUS41 KBGM 251750 CCA
TAFITH
TAF COR
KITH 251750Z 2518/2618 32007KT P6SM OVC022
      TEMPO 2518/2522 4SM -RA BR BKN006
     FM252200 34006KT P6SM BKN022
     FM260200 00000KT P6SM BKN035
      TEMPO 2608/2612 3SM BR
     FM261500 19008KT P6SM BKN035=

USA.gov is the U.S. government's official web portal to all federal, state and local government web resources and services.